Terminal Aerodrome Forecast
Issued by NWS El Paso, TX

Home | Current Version | Previous Version | Text Only | Print | Product List | Glossary On
Versions: 1 2 3 4 5 6 7 8 9 10 11 12 13 14 15 16 17
000
FTUS44 KEPZ 021100
TAFELP
TAF
KELP 021128Z 0212/0312 18005KT P6SM FEW120
     FM021600 26006KT P6SM FEW250
     FM021900 26015G20KT P6SM SCT120 SCT250
     FM030200 27009KT P6SM SKC=

USA.gov is the U.S. government's official web portal to all federal, state and local government web resources and services.